createdAt,value
2022-10-23T00:01:43.973Z,88.24
2022-10-23T00:04:12.492Z,88.00
2022-10-23T00:06:39.596Z,87.87
2022-10-23T00:09:08.726Z,88.36
2022-10-23T00:11:36.338Z,88.06
2022-10-23T00:14:06.534Z,89.05
2022-10-23T00:16:33.607Z,89.75
2022-10-23T00:19:00.241Z,89.83
2022-10-23T00:21:27.572Z,89.60
2022-10-23T00:23:54.247Z,89.57
2022-10-23T00:26:21.141Z,89.19
2022-10-23T00:28:50.873Z,89.57
2022-10-23T00:31:19.245Z,90.11
2022-10-23T00:33:46.475Z,90.86
2022-10-23T00:36:15.149Z,91.23
2022-10-23T00:38:44.533Z,91.10
2022-10-23T00:41:16.714Z,91.22
2022-10-23T00:43:55.521Z,90.72
2022-10-23T00:46:22.083Z,90.83
2022-10-23T00:48:48.834Z,90.69
2022-10-23T00:51:16.336Z,90.35
2022-10-23T00:53:43.892Z,89.94
2022-10-23T00:56:11.352Z,90.11
2022-10-23T00:58:38.043Z,89.61
2022-10-23T01:01:18.208Z,89.71
2022-10-23T01:03:47.276Z,89.19
2022-10-23T01:06:31.260Z,89.60
2022-10-23T01:09:31.772Z,89.35
2022-10-23T01:12:19.612Z,90.19
2022-10-23T01:15:02.385Z,90.12
2022-10-23T01:17:51.847Z,90.27
2022-10-23T01:20:27.527Z,89.85
2022-10-23T01:23:23.525Z,89.96
2022-10-23T01:26:21.446Z,89.99
2022-10-23T01:29:32.977Z,90.58
2022-10-23T01:32:21.916Z,90.68
2022-10-23T01:34:57.256Z,90.74
2022-10-23T01:37:42.160Z,92.48
2022-10-23T01:40:20.006Z,91.74
2022-10-23T01:42:50.555Z,92.34
2022-10-23T01:45:37.324Z,93.84
2022-10-23T01:48:09.906Z,93.33
2022-10-23T01:50:38.466Z,94.83
2022-10-23T01:53:05.905Z,96.37
2022-10-23T01:55:33.415Z,96.79
2022-10-23T01:58:07.560Z,98.50
2022-10-23T02:00:43.078Z,99.28
2022-10-23T02:03:13.298Z,99.50
2022-10-23T02:05:40.043Z,98.73
2022-10-23T02:08:07.086Z,98.49
2022-10-23T02:10:52.472Z,98.73
2022-10-23T02:13:34.321Z,97.98
2022-10-23T02:16:41.167Z,97.08
2022-10-23T02:19:31.036Z,96.61
2022-10-23T02:22:23.482Z,95.74
2022-10-23T02:24:55.700Z,95.84
2022-10-23T02:27:38.989Z,96.29
2022-10-23T02:30:14.038Z,95.91
2022-10-23T02:32:48.306Z,94.96
2022-10-23T02:35:19.479Z,94.63
2022-10-23T02:38:00.822Z,95.33
2022-10-23T02:40:41.688Z,95.63
2022-10-23T02:43:17.608Z,95.37
2022-10-23T02:46:16.230Z,95.05
2022-10-23T02:48:57.956Z,95.93
2022-10-23T02:51:42.802Z,95.98
2022-10-23T02:54:51.016Z,95.17
2022-10-23T02:57:44.647Z,95.36
2022-10-23T03:00:18.316Z,95.66
2022-10-23T03:02:59.104Z,96.96
2022-10-23T03:05:33.335Z,97.09
2022-10-23T03:08:03.726Z,96.33
2022-10-23T03:10:30.626Z,95.50
2022-10-23T03:12:57.256Z,95.51
2022-10-23T03:15:24.053Z,96.04
2022-10-23T03:17:52.033Z,96.74
2022-10-23T03:20:18.937Z,97.79
2022-10-23T03:22:45.767Z,97.65
2022-10-23T03:25:12.975Z,96.51
2022-10-23T03:27:39.530Z,95.93
2022-10-23T03:30:10.095Z,96.32
2022-10-23T03:32:41.060Z,96.17
2022-10-23T03:35:08.230Z,96.28
2022-10-23T03:37:34.865Z,96.17
2022-10-23T03:40:02.136Z,95.23
2022-10-23T03:42:32.609Z,94.50
2022-10-23T03:44:59.242Z,93.93
2022-10-23T03:47:26.011Z,93.30
2022-10-23T03:49:52.633Z,92.22
2022-10-23T03:52:19.324Z,92.39
2022-10-23T03:54:45.976Z,92.94
2022-10-23T03:57:12.624Z,92.63
2022-10-23T03:59:39.214Z,91.88
2022-10-23T04:02:07.153Z,91.39
2022-10-23T04:04:33.778Z,91.31
2022-10-23T04:07:00.381Z,91.26
2022-10-23T04:09:30.308Z,92.16
2022-10-23T04:11:57.106Z,93.26
2022-10-23T04:14:27.503Z,93.18
2022-10-23T04:16:55.441Z,92.92
2022-10-23T04:19:22.017Z,93.93
2022-10-23T04:21:48.740Z,94.97
2022-10-23T04:24:15.331Z,94.90
2022-10-23T04:26:42.451Z,94.95
2022-10-23T04:29:10.498Z,96.55
2022-10-23T04:31:37.080Z,97.07
2022-10-23T04:34:03.700Z,97.50
2022-10-23T04:36:31.932Z,96.60
2022-10-23T04:39:06.416Z,97.39
2022-10-23T04:41:33.217Z,96.73
2022-10-23T04:44:00.544Z,96.86
2022-10-23T04:46:27.244Z,97.66
2022-10-23T04:48:54.020Z,97.93
2022-10-23T04:51:28.378Z,97.16
2022-10-23T04:54:07.780Z,98.50
2022-10-23T04:56:52.917Z,99.68
2022-10-23T04:59:21.192Z,100.00
2022-10-23T05:01:47.839Z,100.00
2022-10-23T05:04:15.461Z,100.00
2022-10-23T05:07:00.627Z,100.00
2022-10-23T05:09:41.982Z,100.00
2022-10-23T05:12:20.741Z,99.43
2022-10-23T05:14:47.675Z,100.00
2022-10-23T05:17:23.456Z,99.37
2022-10-23T05:19:54.102Z,98.99
2022-10-23T05:22:25.380Z,98.80
2022-10-23T05:24:54.430Z,99.53
2022-10-23T05:27:24.291Z,99.57
2022-10-23T05:29:52.818Z,100.00
2022-10-23T05:32:26.099Z,100.00
2022-10-23T05:34:53.935Z,100.00
2022-10-23T05:37:23.668Z,100.00
2022-10-23T05:39:59.147Z,100.00
2022-10-23T05:42:26.044Z,100.00
2022-10-23T05:44:54.855Z,100.00
2022-10-23T05:47:49.088Z,100.00
2022-10-23T05:50:36.119Z,100.00
2022-10-23T05:53:18.354Z,100.00
2022-10-23T05:56:07.506Z,99.08
2022-10-23T05:59:07.748Z,99.98
2022-10-23T06:01:52.607Z,100.00
2022-10-23T06:04:34.300Z,100.00
2022-10-23T06:07:25.543Z,100.00
2022-10-23T06:09:54.567Z,100.00
2022-10-23T06:12:22.592Z,100.00
2022-10-23T06:14:51.011Z,99.17
2022-10-23T06:17:18.826Z,98.56
2022-10-23T06:19:46.769Z,98.68
2022-10-23T06:22:17.136Z,98.89
2022-10-23T06:24:49.341Z,99.84
2022-10-23T06:27:22.596Z,99.57
2022-10-23T06:29:49.298Z,98.72
2022-10-23T06:32:15.951Z,99.03
2022-10-23T06:34:49.780Z,99.24
2022-10-23T06:37:16.418Z,100.00
2022-10-23T06:39:52.210Z,100.00
2022-10-23T06:42:23.862Z,100.00
2022-10-23T06:44:57.234Z,100.00
2022-10-23T06:47:42.813Z,100.00
2022-10-23T06:50:15.328Z,100.00
2022-10-23T06:52:47.958Z,100.00
2022-10-23T06:55:17.469Z,100.00
2022-10-23T06:57:44.587Z,100.00
2022-10-23T07:00:12.629Z,99.65
2022-10-23T07:02:47.077Z,98.93
2022-10-23T07:05:14.030Z,99.98
2022-10-23T07:07:41.555Z,99.55
2022-10-23T07:10:10.008Z,99.02
2022-10-23T07:12:40.998Z,97.11
2022-10-23T07:15:27.565Z,97.21
2022-10-23T07:17:54.576Z,98.09
2022-10-23T07:20:24.144Z,96.56
2022-10-23T07:22:54.992Z,96.83
2022-10-23T07:25:30.824Z,96.16
2022-10-23T07:28:00.352Z,99.24
2022-10-23T07:30:28.858Z,99.43
2022-10-23T07:32:56.319Z,98.86
2022-10-23T07:35:37.145Z,98.14
2022-10-23T07:38:22.111Z,97.22
2022-10-23T07:40:54.085Z,98.53
2022-10-23T07:43:21.279Z,99.89
2022-10-23T07:45:49.475Z,100.00
2022-10-23T07:48:25.184Z,99.81
2022-10-23T07:51:01.443Z,98.29
2022-10-23T07:53:28.558Z,98.81
2022-10-23T07:56:02.399Z,97.63
2022-10-23T07:58:50.801Z,98.07
2022-10-23T08:01:38.413Z,98.08
2022-10-23T08:04:05.829Z,96.96
2022-10-23T08:06:35.416Z,94.59
2022-10-23T08:09:06.180Z,93.26
2022-10-23T08:11:35.754Z,92.81
2022-10-23T08:14:06.183Z,93.78
2022-10-23T08:16:34.575Z,94.69
2022-10-23T08:19:07.737Z,93.23
2022-10-23T08:21:36.955Z,92.15
2022-10-23T08:24:04.633Z,91.44
2022-10-23T08:26:31.572Z,93.71
2022-10-23T08:28:59.721Z,94.27
2022-10-23T08:31:27.918Z,93.91
2022-10-23T08:34:13.581Z,93.88
2022-10-23T08:36:42.122Z,93.42
2022-10-23T08:39:09.567Z,93.97
2022-10-23T08:41:42.930Z,94.14
2022-10-23T08:44:23.170Z,93.51
2022-10-23T08:47:18.596Z,93.43
2022-10-23T08:50:25.310Z,94.13
2022-10-23T08:53:10.118Z,92.59
2022-10-23T08:55:41.621Z,91.86
2022-10-23T08:58:15.398Z,91.39
2022-10-23T09:00:43.793Z,90.17
2022-10-23T09:03:12.802Z,89.51
2022-10-23T09:06:08.899Z,89.02
2022-10-23T09:08:59.543Z,87.75
2022-10-23T09:11:28.914Z,86.85
2022-10-23T09:14:19.846Z,86.55
2022-10-23T09:16:59.514Z,87.65
2022-10-23T09:19:33.350Z,87.65
2022-10-23T09:22:00.349Z,88.46
2022-10-23T09:24:31.615Z,88.37
2022-10-23T09:27:00.627Z,89.75
2022-10-23T09:29:36.111Z,89.73
2022-10-23T09:32:06.003Z,89.45
2022-10-23T09:34:34.562Z,91.08
2022-10-23T09:37:21.654Z,90.89
2022-10-23T09:39:48.405Z,90.55
2022-10-23T09:42:24.397Z,89.72
2022-10-23T09:44:54.003Z,90.08
2022-10-23T09:47:24.472Z,90.23
2022-10-23T09:49:56.706Z,90.04
2022-10-23T09:52:36.289Z,90.15
2022-10-23T09:55:19.074Z,90.00
2022-10-23T09:57:47.085Z,89.91
2022-10-23T10:00:16.775Z,90.06
2022-10-23T10:02:55.536Z,88.84
2022-10-23T10:05:38.725Z,89.19
2022-10-23T10:08:44.606Z,88.86
2022-10-23T10:11:20.671Z,90.40
2022-10-23T10:14:02.495Z,90.17
2022-10-23T10:17:05.748Z,89.63
2022-10-23T10:19:40.812Z,91.33
2022-10-23T10:22:40.553Z,92.61
2022-10-23T10:25:32.158Z,92.36
2022-10-23T10:28:01.608Z,91.54
2022-10-23T10:30:52.325Z,92.49
2022-10-23T10:33:33.700Z,92.15
2022-10-23T10:36:36.397Z,91.44
2022-10-23T10:39:12.018Z,91.89
2022-10-23T10:42:07.267Z,92.63
2022-10-23T10:44:52.946Z,90.74
2022-10-23T10:47:32.209Z,91.08
2022-10-23T10:50:47.483Z,91.89
2022-10-23T10:53:24.263Z,92.22
2022-10-23T10:55:54.342Z,91.21
2022-10-23T10:58:36.142Z,89.87
2022-10-23T11:01:13.591Z,91.52
2022-10-23T11:03:52.535Z,91.73
2022-10-23T11:06:23.030Z,91.37
2022-10-23T11:08:58.105Z,88.86
2022-10-23T11:11:40.737Z,87.68
2022-10-23T11:14:17.649Z,86.81
2022-10-23T11:16:51.200Z,85.03
2022-10-23T11:19:22.696Z,84.27
2022-10-23T11:22:31.229Z,86.04
2022-10-23T11:25:38.904Z,86.40
2022-10-23T11:28:32.431Z,88.14
2022-10-23T11:31:20.694Z,89.34
2022-10-23T11:34:07.523Z,90.33
2022-10-23T11:36:48.894Z,90.26
2022-10-23T11:39:27.964Z,89.26
2022-10-23T11:42:04.589Z,90.06
2022-10-23T11:44:45.236Z,89.55
2022-10-23T11:47:39.676Z,88.92
2022-10-23T11:50:06.807Z,89.89
2022-10-23T11:52:45.558Z,88.35
2022-10-23T11:55:25.826Z,87.26
2022-10-23T11:58:16.488Z,86.71
2022-10-23T12:01:06.261Z,87.67
2022-10-23T12:03:58.132Z,89.17
2022-10-23T12:06:32.999Z,87.66
2022-10-23T12:09:04.325Z,88.32
2022-10-23T12:11:47.113Z,87.56
2022-10-23T12:14:32.033Z,87.21
2022-10-23T12:16:59.438Z,86.26
2022-10-23T12:19:43.879Z,84.42
2022-10-23T12:22:11.446Z,82.74
2022-10-23T12:24:55.571Z,82.10
2022-10-23T12:27:32.992Z,82.19
2022-10-23T12:30:29.170Z,82.83
2022-10-23T12:33:06.541Z,84.42
2022-10-23T12:35:47.678Z,83.46
2022-10-23T12:38:35.584Z,82.77
2022-10-23T12:41:12.924Z,82.57
2022-10-23T12:43:42.391Z,83.73
2022-10-23T12:46:17.642Z,82.08
2022-10-23T12:48:53.814Z,81.44
2022-10-23T12:51:25.973Z,82.94
2022-10-23T12:53:52.895Z,83.22
2022-10-23T12:56:20.398Z,82.98
2022-10-23T12:58:58.079Z,81.92
2022-10-23T13:01:35.128Z,81.80
2022-10-23T13:04:13.750Z,80.65
2022-10-23T13:06:40.488Z,80.39
2022-10-23T13:09:28.237Z,79.27
2022-10-23T13:12:30.748Z,79.01
2022-10-23T13:15:06.659Z,78.04
2022-10-23T13:17:39.379Z,77.46
2022-10-23T13:20:18.061Z,76.84
2022-10-23T13:22:47.725Z,76.03
2022-10-23T13:25:24.777Z,75.34
2022-10-23T13:27:51.902Z,75.06
2022-10-23T13:30:33.277Z,76.58
2022-10-23T13:32:59.954Z,79.59
2022-10-23T13:35:27.011Z,79.62
2022-10-23T13:37:54.946Z,81.25
2022-10-23T13:40:27.302Z,81.50
2022-10-23T13:42:56.170Z,80.76
2022-10-23T13:45:26.135Z,80.60
2022-10-23T13:47:52.867Z,80.65
2022-10-23T13:50:19.990Z,80.47
2022-10-23T13:52:47.664Z,81.08
2022-10-23T13:55:25.407Z,80.66
2022-10-23T13:57:52.255Z,81.39
2022-10-23T14:00:19.221Z,80.63
2022-10-23T14:02:45.869Z,80.96
2022-10-23T14:05:12.926Z,81.01
2022-10-23T14:07:39.943Z,80.07
2022-10-23T14:10:07.046Z,79.47
2022-10-23T14:12:43.092Z,80.90
2022-10-23T14:15:11.242Z,80.28
2022-10-23T14:17:38.141Z,79.59
2022-10-23T14:29:02.380Z,77.67
2022-10-23T14:31:33.681Z,77.75
2022-10-23T14:34:03.531Z,77.16
2022-10-23T14:36:38.735Z,76.71
2022-10-23T14:39:16.543Z,76.72
2022-10-23T14:41:43.241Z,77.27
2022-10-23T14:44:09.824Z,78.23
2022-10-23T14:46:38.179Z,78.32
2022-10-23T14:49:05.028Z,78.02
2022-10-23T14:54:43.252Z,78.47
2022-10-23T14:57:10.591Z,78.84
2022-10-23T14:59:37.162Z,78.68
2022-10-23T15:02:07.132Z,77.88
2022-10-23T15:04:33.954Z,77.63
2022-10-23T15:07:00.593Z,77.93
2022-10-23T15:09:27.317Z,78.07
2022-10-23T15:11:54.067Z,77.88
2022-10-23T15:14:22.756Z,77.78
2022-10-23T15:16:49.412Z,78.11
2022-10-23T15:19:18.635Z,77.71
2022-10-23T15:21:48.760Z,76.88
2022-10-23T15:24:16.833Z,76.83
2022-10-23T15:26:44.013Z,76.59
2022-10-23T15:29:15.527Z,76.66
2022-10-23T15:31:46.092Z,76.87
2022-10-23T15:34:21.904Z,76.81
2022-10-23T15:36:49.391Z,77.14
2022-10-23T15:39:19.734Z,77.88
2022-10-23T15:41:47.695Z,78.20
2022-10-23T15:44:16.918Z,77.80
2022-10-23T15:46:43.690Z,77.90
2022-10-23T15:49:10.704Z,78.04
2022-10-23T15:51:38.402Z,78.31
2022-10-23T15:54:10.789Z,78.51
2022-10-23T15:56:37.500Z,78.49
2022-10-23T15:59:04.179Z,78.56
2022-10-23T16:01:33.096Z,78.47
2022-10-23T16:03:59.949Z,78.63
2022-10-23T16:06:26.624Z,78.95
2022-10-23T16:11:23.744Z,79.86
2022-10-23T16:13:50.916Z,80.16
2022-10-23T16:16:18.519Z,79.99
2022-10-23T16:18:45.689Z,79.92
2022-10-23T16:21:24.008Z,79.74
2022-10-23T16:23:52.302Z,79.87
2022-10-23T16:26:20.510Z,79.94
2022-10-23T17:02:46.699Z,80.09
2022-10-23T17:05:13.742Z,80.31
2022-10-23T17:07:40.493Z,80.29
2022-10-23T17:10:07.713Z,80.27
2022-10-23T17:12:36.154Z,79.75
2022-10-23T17:15:03.987Z,79.57
2022-10-23T17:17:41.159Z,79.69
2022-10-23T17:20:10.875Z,80.24
2022-10-23T17:28:22.897Z,80.06
2022-10-23T17:30:49.991Z,80.93
2022-10-23T17:33:17.436Z,80.77
2022-10-23T17:35:45.347Z,80.97
2022-10-23T17:38:18.078Z,81.70
2022-10-23T17:40:46.715Z,81.37
2022-10-23T17:43:15.273Z,81.54
2022-10-23T17:45:45.381Z,81.85
2022-10-23T17:48:13.834Z,82.08
2022-10-23T17:50:41.115Z,82.24
2022-10-23T17:53:08.402Z,82.51
2022-10-23T17:55:41.793Z,82.67
2022-10-23T17:58:08.893Z,82.67
2022-10-23T18:00:37.277Z,82.90
2022-10-23T18:03:05.124Z,83.31
2022-10-23T18:05:33.080Z,83.38
2022-10-23T18:08:00.452Z,82.66
2022-10-23T18:10:27.606Z,82.54
2022-10-23T18:12:54.261Z,82.48
2022-10-23T18:15:20.885Z,83.12
2022-10-23T18:17:47.510Z,82.65
2022-10-23T18:20:15.787Z,82.12
2022-10-23T18:22:42.987Z,82.28
2022-10-23T18:25:10.119Z,82.54
2022-10-23T18:40:16.725Z,83.77
2022-10-23T18:42:43.908Z,82.92
2022-10-23T18:45:13.733Z,83.43
2022-10-23T18:47:41.000Z,83.70
2022-10-23T18:50:10.578Z,83.49
2022-10-23T18:52:37.201Z,83.22
2022-10-23T18:55:06.076Z,83.46
2022-10-23T18:57:33.564Z,83.51
2022-10-23T19:00:01.112Z,83.11
2022-10-23T19:02:29.750Z,83.34
2022-10-23T19:04:56.569Z,83.05
2022-10-23T19:07:23.273Z,82.73
2022-10-23T19:09:49.874Z,82.87
2022-10-23T19:12:17.808Z,82.99
2022-10-23T19:14:47.117Z,83.27
2022-10-23T19:17:24.506Z,83.08
2022-10-23T19:20:01.596Z,82.76
2022-10-23T19:22:31.067Z,83.28
2022-10-23T19:25:07.441Z,83.34
2022-10-23T19:27:34.060Z,83.60
2022-10-23T19:30:06.307Z,83.37
2022-10-23T19:32:32.999Z,83.49
2022-10-23T19:35:01.162Z,83.93
2022-10-23T19:37:27.867Z,83.81
2022-10-23T19:39:54.599Z,83.69
2022-10-23T19:42:21.576Z,83.71
2022-10-23T19:44:48.391Z,83.71
2022-10-23T19:47:15.176Z,83.75
2022-10-23T19:49:41.870Z,83.78
2022-10-23T19:52:08.614Z,83.80
2022-10-23T19:54:35.967Z,83.91
2022-10-23T19:57:02.712Z,83.92
2022-10-23T19:59:31.501Z,84.27
2022-10-23T20:01:58.343Z,84.14
2022-10-23T20:04:25.247Z,84.02
2022-10-23T20:06:54.749Z,84.47
2022-10-23T20:09:22.470Z,84.27
2022-10-23T20:11:52.164Z,84.38
2022-10-23T20:14:19.885Z,84.24
2022-10-23T20:16:48.064Z,84.08
2022-10-23T20:21:46.853Z,84.48
2022-10-23T20:24:15.985Z,84.53
2022-10-23T20:26:45.265Z,84.45
2022-10-23T20:29:12.267Z,84.00
2022-10-23T20:31:43.347Z,84.17
2022-10-23T20:34:10.903Z,84.32
2022-10-23T20:36:45.568Z,84.22
2022-10-23T20:39:19.788Z,84.16
2022-10-23T20:41:47.519Z,84.15
2022-10-23T20:46:44.358Z,84.13
2022-10-23T20:49:12.474Z,83.81
2022-10-23T20:51:39.226Z,83.67
2022-10-23T20:54:06.184Z,83.46
2022-10-23T20:56:35.776Z,83.55
2022-10-23T20:59:05.748Z,83.36
2022-10-23T21:01:34.310Z,83.01
2022-10-23T21:04:02.757Z,83.10
2022-10-23T21:06:45.722Z,83.25
2022-10-23T21:09:18.908Z,83.26
2022-10-23T21:11:45.567Z,83.09
2022-10-23T21:14:12.522Z,82.93
2022-10-23T21:16:41.586Z,83.40
2022-10-23T21:19:10.376Z,83.04
2022-10-23T21:21:37.046Z,83.20
2022-10-23T21:24:09.684Z,83.48
2022-10-23T21:26:36.558Z,83.55
2022-10-23T21:29:19.779Z,83.36
2022-10-23T21:31:55.879Z,83.62
2022-10-23T21:34:24.151Z,83.79
2022-10-23T21:39:37.793Z,84.11
2022-10-23T21:42:04.511Z,84.59
2022-10-23T21:44:32.741Z,84.65
2022-10-23T21:46:59.414Z,84.35
2022-10-23T21:49:28.496Z,83.99
2022-10-23T21:51:55.394Z,83.79
2022-10-23T21:54:22.550Z,83.88
2022-10-23T21:56:53.632Z,83.93
2022-10-23T21:59:28.822Z,83.76
2022-10-23T22:01:58.513Z,83.46
2022-10-23T22:04:25.291Z,83.28
2022-10-23T22:06:51.960Z,83.45
2022-10-23T22:09:20.706Z,83.68
2022-10-23T22:11:51.542Z,83.79
2022-10-23T22:14:18.582Z,83.64
2022-10-23T22:16:45.517Z,83.87
2022-10-23T22:19:14.136Z,84.15
2022-10-23T22:21:41.174Z,84.25
2022-10-23T22:24:08.750Z,84.27
2022-10-23T22:26:41.385Z,84.58
2022-10-23T22:29:10.803Z,84.75
2022-10-23T22:31:38.742Z,84.71
2022-10-23T22:34:18.640Z,85.19
2022-10-23T22:36:54.779Z,85.16
2022-10-23T22:39:22.347Z,85.50
2022-10-23T22:41:49.497Z,85.89
2022-10-23T22:44:16.651Z,86.04
2022-10-23T22:46:43.610Z,86.01
2022-10-23T22:49:10.770Z,85.92
2022-10-23T22:51:39.647Z,85.86
2022-10-23T22:54:06.667Z,86.16
2022-10-23T22:56:33.530Z,86.31
2022-10-23T22:59:00.507Z,86.56
2022-10-23T23:01:34.305Z,86.93
2022-10-23T23:04:08.925Z,86.93
